Byron, California
Current Conditions -  °F | °C
As of 3:53 PM on Tuesday 25 Nov 2014 (Local Time) from KLVK Reporting Station
Clear Clear  
Wind Chill: 63°   Ceiling: Unl
Heat Index: 63°   Visibility: 10mi
Dew Point: 45°   Wind: 12mph
Humidity: 52%   Direction: 50°NE
Pressure: 30.37"   Gusts: NA
Location:  37.87°N, 121.64°W
Report Text: KLVK 252353Z 05010KT 10SM CLR 17/07 A3037 RMK AO2 SLP283 T01720072 10183 20150 56009 $
Loading
Personal Weather Stations






























Interactive Weather Map New forecast layout! Learn more

10-Day Weather Forecast

Advertisements
Track Severe Weather on mobile